Time;durP1;ratioP1;P1;durP2;ratioP2;P2;SDS_P1;SDS_P2;PMS_P1;PMS_P2;Temp;Humidity;BMP_temperature;BMP_pressure;BME280_temperature;BME280_humidity;BME280_pressure;Samples;Min_cycle;Max_cycle;Signal;HPM_P1;HPM_P2
2022/03/04 00:00:40;;;;;;;62.90;57.40;;;;;;;-1.55;64.16;97976.80;105866;1280;24457;-79
2022/03/04 00:03:11;;;;;;;64.00;58.50;;;;;;;-1.57;63.91;97974.15;105883;1280;23923;-79
2022/03/04 00:05:39;;;;;;;59.80;54.30;;;;;;;-1.60;63.88;97978.37;105894;1280;25427;-79
2022/03/04 00:08:08;;;;;;;53.10;48.30;;;;;;;-1.57;63.96;97970.61;106030;1280;22585;-79
2022/03/04 00:10:37;;;;;;;57.50;52.50;;;;;;;-1.54;64.50;97974.05;105848;1279;23395;-79
2022/03/04 00:13:05;;;;;;;59.90;54.80;;;;;;;-1.54;64.91;97979.38;105750;1280;24092;-79
2022/03/04 00:15:34;;;;;;;58.60;53.50;;;;;;;-1.60;65.33;97976.09;105846;1280;23524;-79
2022/03/04 00:18:04;;;;;;;63.20;57.80;;;;;;;-1.63;65.05;97980.11;105925;1280;22641;-80
2022/03/04 00:20:32;;;;;;;63.70;58.20;;;;;;;-1.69;65.39;97977.23;105558;1280;25434;-79
2022/03/04 00:23:00;;;;;;;64.10;58.70;;;;;;;-1.69;65.12;97976.38;105762;1280;23967;-79
2022/03/04 00:25:28;;;;;;;64.50;59.10;;;;;;;-1.69;64.92;97976.50;105558;1280;24281;-79
2022/03/04 00:27:56;;;;;;;69.10;63.30;;;;;;;-1.69;64.66;97975.73;105856;1279;22574;-79
2022/03/04 00:30:36;;;;;;;62.00;56.50;;;;;;;-1.69;64.61;97975.44;105910;1280;24226;-80
2022/03/04 00:33:05;;;;;;;57.40;52.40;;;;;;;-1.65;64.81;97973.09;105874;1280;24718;-82
2022/03/04 00:35:34;;;;;;;58.20;53.20;;;;;;;-1.58;64.62;97972.38;105905;1280;25935;-79
2022/03/04 00:38:04;;;;;;;54.90;50.10;;;;;;;-1.54;64.94;97970.51;105787;1279;22575;-78
2022/03/04 00:40:34;;;;;;;62.60;56.90;;;;;;;-1.55;65.38;97964.90;105796;1279;25462;-79
2022/03/04 00:43:02;;;;;;;65.70;60.00;;;;;;;-1.58;65.34;97966.52;105885;1280;22724;-79
2022/03/04 00:45:30;;;;;;;62.90;57.70;;;;;;;-1.57;65.07;97962.45;105839;1280;22550;-82
2022/03/04 00:47:58;;;;;;;73.80;67.30;;;;;;;-1.58;65.07;97965.27;105926;1280;25064;-80
2022/03/04 00:50:26;;;;;;;70.60;64.00;;;;;;;-1.61;65.14;97958.26;105869;1280;22722;-79
2022/03/04 00:52:55;;;;;;;73.30;65.90;;;;;;;-1.67;65.41;97959.73;105936;1280;22813;-79
2022/03/04 00:55:24;;;;;;;66.60;60.40;;;;;;;-1.72;65.04;97953.01;105693;1280;22688;-79
2022/03/04 00:57:51;;;;;;;71.10;65.00;;;;;;;-1.72;65.16;97948.30;105947;1280;24501;-78
2022/03/04 01:00:19;;;;;;;74.60;68.20;;;;;;;-1.67;65.40;97948.23;105870;1278;24451;-78
2022/03/04 01:02:48;;;;;;;80.30;72.90;;;;;;;-1.63;65.50;97948.11;105726;1277;24283;-80
2022/03/04 01:05:16;;;;;;;74.20;67.50;;;;;;;-1.60;65.51;97953.73;105911;1280;22580;-80
2022/03/04 01:07:44;;;;;;;85.10;77.10;;;;;;;-1.60;65.60;97952.96;106030;1279;23989;-83
2022/03/04 01:10:18;;;;;;;87.30;79.10;;;;;;;-1.60;65.64;97953.68;106044;1280;23265;-80
2022/03/04 01:12:47;;;;;;;86.90;76.80;;;;;;;-1.61;65.62;97955.89;106163;1280;22741;-82
2022/03/04 01:15:14;;;;;;;76.80;69.70;;;;;;;-1.62;65.65;97947.98;107175;1278;22629;-80
2022/03/04 01:17:45;;;;;;;72.70;65.40;;;;;;;-1.61;65.69;97949.59;106647;1278;22532;-80
2022/03/04 01:20:13;;;;;;;68.70;62.10;;;;;;;-1.54;65.70;97944.16;106709;1278;26123;-79
2022/03/04 01:22:45;;;;;;;71.20;64.90;;;;;;;-1.50;65.73;97942.30;106865;1278;22778;-79
2022/03/04 01:25:14;;;;;;;71.70;65.40;;;;;;;-1.46;65.82;97946.27;106793;1278;155347;-81
2022/03/04 01:27:51;;;;;;;72.50;66.20;;;;;;;-1.44;65.76;97942.59;107420;1280;22482;-81
2022/03/04 01:30:19;;;;;;;74.50;67.90;;;;;;;-1.42;66.22;97936.13;106315;1280;22654;-80
2022/03/04 01:32:51;;;;;;;73.80;67.40;;;;;;;-1.39;66.13;97928.91;106372;1280;25236;-79
2022/03/04 01:35:21;;;;;;;79.80;72.80;;;;;;;-1.41;66.16;97928.08;106194;1278;22535;-79
2022/03/04 01:37:49;;;;;;;81.50;74.10;;;;;;;-1.44;66.18;97931.81;106243;1280;23936;-80
2022/03/04 01:40:17;;;;;;;84.50;76.80;;;;;;;-1.45;66.18;97931.02;106235;1280;22899;-80
2022/03/04 01:42:48;;;;;;;77.70;70.60;;;;;;;-1.44;66.49;97929.20;106438;1280;22635;-81
2022/03/04 01:45:15;;;;;;;66.80;60.90;;;;;;;-1.43;66.26;97928.50;106111;1278;22715;-82
2022/03/04 01:47:43;;;;;;;62.50;56.90;;;;;;;-1.42;66.35;97928.70;106155;1278;25386;-81
2022/03/04 01:50:14;;;;;;;67.40;61.60;;;;;;;-1.42;66.23;97929.59;106103;1278;24325;-80
2022/03/04 01:52:42;;;;;;;67.70;61.70;;;;;;;-1.40;66.38;97921.81;106085;1280;22554;-81
2022/03/04 01:55:13;;;;;;;66.80;60.90;;;;;;;-1.36;66.46;97925.30;105999;1278;25621;-82
2022/03/04 01:57:41;;;;;;;67.30;61.40;;;;;;;-1.36;66.47;97928.31;106025;1278;23626;-81
2022/03/04 02:00:13;;;;;;;67.90;61.80;;;;;;;-1.35;66.66;97929.02;105803;1280;25370;-81
2022/03/04 02:02:43;;;;;;;76.10;69.00;;;;;;;-1.32;66.83;97932.13;105967;1278;22764;-81
2022/03/04 02:05:13;;;;;;;74.80;67.80;;;;;;;-1.33;66.72;97932.51;105784;1280;22605;-82
2022/03/04 02:07:41;;;;;;;77.30;69.90;;;;;;;-1.37;66.57;97936.65;105732;1278;22682;-81
2022/03/04 02:10:11;;;;;;;75.80;68.50;;;;;;;-1.38;66.72;97938.17;105829;1278;24451;-80
2022/03/04 02:12:40;;;;;;;65.40;58.80;;;;;;;-1.40;66.68;97934.98;105966;1278;22772;-82
2022/03/04 02:15:11;;;;;;;61.10;55.50;;;;;;;-1.42;66.65;97940.41;105842;1280;25295;-82
2022/03/04 02:17:39;;;;;;;58.70;53.50;;;;;;;-1.44;66.75;97938.95;105997;1278;22788;-80
2022/03/04 02:20:12;;;;;;;58.20;53.10;;;;;;;-1.46;66.81;97944.64;105711;1278;22550;-80
2022/03/04 02:22:43;;;;;;;59.80;54.30;;;;;;;-1.48;66.94;97945.84;105884;1280;25330;-80
2022/03/04 02:25:11;;;;;;;52.80;48.20;;;;;;;-1.49;67.44;97947.24;105862;1279;24404;-84
2022/03/04 02:27:40;;;;;;;53.10;48.50;;;;;;;-1.53;67.08;97949.39;105767;1278;22576;-81
2022/03/04 02:30:11;;;;;;;54.30;49.70;;;;;;;-1.57;67.22;97945.86;105709;1280;24241;-80
2022/03/04 02:32:41;;;;;;;55.80;50.90;;;;;;;-1.62;67.33;97945.05;105713;1278;24280;-81
2022/03/04 02:35:09;;;;;;;55.50;50.70;;;;;;;-1.66;67.72;97949.33;105922;1277;25490;-82
2022/03/04 02:37:39;;;;;;;52.50;47.90;;;;;;;-1.69;67.35;97947.44;105624;1278;24391;-81
2022/03/04 02:40:10;;;;;;;46.30;42.10;;;;;;;-1.70;67.34;97948.15;105957;1278;23030;-80
2022/03/04 02:42:41;;;;;;;49.90;45.40;;;;;;;-1.69;67.69;97948.66;105980;1278;23136;-80
2022/03/04 02:45:10;;;;;;;49.60;45.10;;;;;;;-1.69;67.38;97948.45;105854;1278;25672;-81
2022/03/04 02:47:38;;;;;;;49.90;45.50;;;;;;;-1.68;67.38;97948.36;105832;1280;22560;-79
2022/03/04 02:50:10;;;;;;;48.50;44.40;;;;;;;-1.70;67.48;97948.73;105926;1278;25563;-78
2022/03/04 02:52:40;;;;;;;49.50;45.20;;;;;;;-1.73;67.50;97947.20;105894;1278;24225;-79
2022/03/04 02:55:11;;;;;;;48.80;44.70;;;;;;;-1.75;67.59;97953.44;105878;1278;22859;-80
2022/03/04 02:57:45;;;;;;;49.90;45.40;;;;;;;-1.76;67.48;97956.42;105758;1277;22615;-80
2022/03/04 03:00:15;;;;;;;49.20;44.40;;;;;;;-1.78;67.40;97956.72;105812;1278;22711;-80
2022/03/04 03:02:47;;;;;;;43.80;39.80;;;;;;;-1.76;67.50;97958.16;105800;1280;25443;-80
2022/03/04 03:05:15;;;;;;;45.30;41.20;;;;;;;-1.72;67.90;97962.58;105713;1278;22688;-80
2022/03/04 03:07:44;;;;;;;46.20;41.80;;;;;;;-1.69;67.91;97964.27;105853;1278;25393;-80
2022/03/04 03:10:12;;;;;;;43.80;39.80;;;;;;;-1.68;67.72;97964.85;105864;1278;25256;-79
2022/03/04 03:12:41;;;;;;;46.30;42.20;;;;;;;-1.68;67.77;97965.64;105872;1278;22704;-78
2022/03/04 03:15:12;;;;;;;47.60;43.10;;;;;;;-1.67;67.83;97963.52;105814;1278;25302;-79
2022/03/04 03:17:40;;;;;;;47.10;42.90;;;;;;;-1.64;67.80;97961.83;105766;1278;22692;-80
2022/03/04 03:20:11;;;;;;;49.90;45.60;;;;;;;-1.62;67.78;97962.16;105763;1280;22556;-79
2022/03/04 03:22:39;;;;;;;48.70;44.20;;;;;;;-1.65;67.84;97966.06;105812;1280;22556;-79
2022/03/04 03:25:08;;;;;;;46.90;42.80;;;;;;;-1.68;67.67;97964.10;105726;1280;22556;-78
2022/03/04 03:27:39;;;;;;;44.20;40.00;;;;;;;-1.70;67.89;97955.66;105750;1277;25494;-83
2022/03/04 03:30:12;;;;;;;42.80;39.00;;;;;;;-1.71;68.08;97966.89;105929;1278;22597;-83
2022/03/04 03:32:40;;;;;;;46.70;42.60;;;;;;;-1.73;68.34;97970.41;105817;1278;25383;-79
2022/03/04 03:35:11;;;;;;;46.70;42.40;;;;;;;-1.76;68.21;97967.84;105808;1281;22551;-77
2022/03/04 03:37:39;;;;;;;46.20;42.10;;;;;;;-1.80;68.43;97968.89;105843;1278;22651;-79
2022/03/04 03:40:11;;;;;;;48.80;44.20;;;;;;;-1.83;68.55;97967.00;105948;1278;24236;-77
2022/03/04 03:42:39;;;;;;;46.00;41.80;;;;;;;-1.85;68.71;97967.98;105867;1278;25716;-79
2022/03/04 03:45:12;;;;;;;44.10;39.90;;;;;;;-1.87;68.50;97967.28;105875;1278;22562;-79
2022/03/04 03:47:42;;;;;;;42.00;38.20;;;;;;;-1.82;68.65;97971.25;105924;1277;24663;-80
2022/03/04 03:50:12;;;;;;;44.80;40.80;;;;;;;-1.76;68.39;97967.79;105905;1277;22540;-79
2022/03/04 03:52:42;;;;;;;46.10;41.80;;;;;;;-1.70;68.41;97965.05;105953;1277;24406;-80
2022/03/04 03:55:10;;;;;;;45.30;41.00;;;;;;;-1.64;68.38;97970.57;105780;1281;22664;-79
2022/03/04 03:57:38;;;;;;;46.50;42.20;;;;;;;-1.62;68.55;97971.67;105820;1280;22690;-80
2022/03/04 04:00:10;;;;;;;50.00;45.10;;;;;;;-1.64;68.43;97964.98;105828;1277;24429;-82
2022/03/04 04:02:41;;;;;;;51.70;46.90;;;;;;;-1.65;68.55;97970.48;105897;1277;23954;-79
2022/03/04 04:05:11;;;;;;;53.70;48.80;;;;;;;-1.67;68.62;97975.67;105860;1278;22687;-78
2022/03/04 04:07:39;;;;;;;50.60;45.70;;;;;;;-1.68;68.53;97975.72;105771;1278;25290;-79
2022/03/04 04:10:08;;;;;;;51.60;46.50;;;;;;;-1.68;68.55;97978.52;105763;1277;23464;-80
2022/03/04 04:12:45;;;;;;;53.60;48.40;;;;;;;-1.67;68.72;97978.72;105673;1277;25491;-81
2022/03/04 04:15:16;;;;;;;57.10;51.60;;;;;;;-1.68;68.79;97976.54;105733;1277;22839;-81
2022/03/04 04:17:43;;;;;;;56.40;51.00;;;;;;;-1.71;69.05;97980.46;105680;1277;24382;-80
2022/03/04 04:20:11;;;;;;;58.60;53.00;;;;;;;-1.73;68.96;97975.13;105688;1278;24395;-80
2022/03/04 04:22:42;;;;;;;57.60;52.20;;;;;;;-1.72;68.82;97974.51;105748;1280;24317;-81
2022/03/04 04:25:10;;;;;;;61.60;56.00;;;;;;;-1.73;68.96;97980.82;105803;1277;22598;-80
2022/03/04 04:27:38;;;;;;;60.40;54.90;;;;;;;-1.74;68.90;97982.45;105407;1281;24349;-80
2022/03/04 04:30:10;;;;;;;56.10;50.90;;;;;;;-1.74;69.08;97984.67;105417;1281;22533;-81
2022/03/04 04:32:38;;;;;;;53.40;48.20;;;;;;;-1.77;68.97;97982.02;105744;1277;25458;-80
2022/03/04 04:35:09;;;;;;;51.80;46.80;;;;;;;-1.75;69.21;97980.34;105692;1278;22560;-81
2022/03/04 04:37:37;;;;;;;57.70;52.30;;;;;;;-1.74;69.19;97974.80;105800;1278;22815;-81
2022/03/04 04:40:10;;;;;;;59.50;54.20;;;;;;;-1.73;69.21;97981.42;105656;1278;24360;-81
2022/03/04 04:42:41;;;;;;;60.50;54.70;;;;;;;-1.74;69.20;97978.21;105764;1281;24249;-81
2022/03/04 04:45:09;;;;;;;63.70;57.80;;;;;;;-1.73;69.20;97979.80;105832;1280;24241;-80
2022/03/04 04:47:39;;;;;;;60.20;54.60;;;;;;;-1.73;69.31;97982.45;105887;1278;24333;-81
2022/03/04 04:50:08;;;;;;;56.50;51.20;;;;;;;-1.76;69.62;97984.05;105920;1278;23185;-81
2022/03/04 04:52:36;;;;;;;57.60;52.10;;;;;;;-1.76;69.68;97980.92;105917;1278;24402;-79
2022/03/04 04:55:07;;;;;;;60.30;54.60;;;;;;;-1.73;69.50;97983.41;105637;1278;25444;-79
2022/03/04 04:57:35;;;;;;;61.90;56.20;;;;;;;-1.68;69.82;97978.28;105732;1278;22550;-80
2022/03/04 05:00:07;;;;;;;66.00;59.80;;;;;;;-1.66;69.80;97980.67;105722;1278;24549;-81
2022/03/04 05:02:39;;;;;;;68.70;62.20;;;;;;;-1.67;69.64;97985.30;105869;1277;22678;-80
2022/03/04 05:05:08;;;;;;;65.20;59.20;;;;;;;-1.66;69.93;97983.10;105810;1282;25711;-80
2022/03/04 05:07:38;;;;;;;65.60;59.60;;;;;;;-1.66;70.06;97985.73;105887;1278;24142;-80
2022/03/04 05:10:07;;;;;;;64.10;58.10;;;;;;;-1.67;70.02;97989.82;105795;1280;24267;-81
2022/03/04 05:12:35;;;;;;;63.70;57.60;;;;;;;-1.70;69.90;97987.24;105854;1278;25595;-81
2022/03/04 05:15:06;;;;;;;63.80;57.70;;;;;;;-1.67;69.93;97985.71;105737;1278;22880;-80
2022/03/04 05:17:38;;;;;;;65.00;59.00;;;;;;;-1.65;70.03;97981.71;105741;1277;25251;-80
2022/03/04 05:20:06;;;;;;;64.20;58.40;;;;;;;-1.62;70.16;97986.80;105892;1277;23291;-81
2022/03/04 05:22:37;;;;;;;67.10;60.90;;;;;;;-1.62;70.14;97990.67;105767;1278;25424;-81
2022/03/04 05:25:05;;;;;;;70.30;63.70;;;;;;;-1.62;70.21;97987.85;105897;1280;24934;-82
2022/03/04 05:27:33;;;;;;;82.90;74.20;;;;;;;-1.61;70.21;97992.92;105777;1278;22886;-81
2022/03/04 05:30:02;;;;;;;76.80;69.20;;;;;;;-1.63;70.32;97994.25;105866;1278;22707;-80
2022/03/04 05:32:30;;;;;;;74.50;66.30;;;;;;;-1.60;70.16;97996.13;105884;1278;25459;-81
2022/03/04 05:34:58;;;;;;;72.80;65.60;;;;;;;-1.55;70.09;98002.30;105850;1278;22838;-81
2022/03/04 05:37:27;;;;;;;75.40;67.90;;;;;;;-1.53;70.50;98005.70;105903;1278;22546;-82
2022/03/04 05:39:54;;;;;;;79.50;71.30;;;;;;;-1.53;70.68;98009.17;105804;1278;22614;-80
2022/03/04 05:42:22;;;;;;;84.40;75.80;;;;;;;-1.57;70.68;98006.39;105663;1281;22791;-79
2022/03/04 05:44:50;;;;;;;91.70;74.10;;;;;;;-1.56;70.70;98009.06;105860;1277;22554;-80
2022/03/04 05:47:20;;;;;;;81.00;72.60;;;;;;;-1.57;70.59;98006.39;105838;1277;25308;-81
2022/03/04 05:49:48;;;;;;;74.50;67.30;;;;;;;-1.57;70.54;98010.05;105855;1277;22556;-81
2022/03/04 05:52:19;;;;;;;67.60;61.30;;;;;;;-1.57;70.81;98011.89;105655;1277;22690;-83
2022/03/04 05:54:47;;;;;;;65.90;59.80;;;;;;;-1.56;70.58;98010.80;105971;1277;22688;-81
2022/03/04 05:57:15;;;;;;;70.50;63.60;;;;;;;-1.52;70.83;98006.38;105884;1277;24424;-81
2022/03/04 05:59:43;;;;;;;69.20;62.50;;;;;;;-1.52;70.97;98008.05;105787;1281;24433;-80
2022/03/04 06:02:11;;;;;;;78.40;71.40;;;;;;;-1.56;71.22;98006.67;105523;1281;22801;-81
2022/03/04 06:04:40;;;;;;;82.90;74.90;;;;;;;-1.51;71.27;98012.46;105878;1277;23941;-80
2022/03/04 06:07:07;;;;;;;79.70;72.40;;;;;;;-1.47;71.20;98017.07;105688;1278;24401;-81
2022/03/04 06:09:37;;;;;;;81.50;73.40;;;;;;;-1.45;71.92;98023.47;105915;1277;22689;-80
2022/03/04 06:12:05;;;;;;;70.50;63.40;;;;;;;-1.46;71.24;98027.80;105678;1277;22557;-82
2022/03/04 06:14:33;;;;;;;71.50;64.60;;;;;;;-1.46;71.28;98028.77;105866;1278;24236;-85
2022/03/04 06:17:01;;;;;;;67.70;61.10;;;;;;;-1.43;71.10;98026.33;105896;1278;22856;-81
2022/03/04 06:19:36;;;;;;;68.80;62.30;;;;;;;-1.35;71.20;98029.27;105715;1278;25440;-82
2022/03/04 06:22:04;;;;;;;74.00;66.60;;;;;;;-1.31;71.28;98028.29;105909;1278;22899;-80
2022/03/04 06:24:32;;;;;;;74.50;67.50;;;;;;;-1.27;71.27;98042.05;105850;1277;22543;-83
2022/03/04 06:27:01;;;;;;;70.30;63.50;;;;;;;-1.25;71.14;98042.20;105907;1278;22704;-80
2022/03/04 06:29:33;;;;;;;78.40;70.60;;;;;;;-1.26;71.22;98045.98;105748;1277;24244;-81
2022/03/04 06:32:01;;;;;;;77.40;69.50;;;;;;;-1.26;71.19;98053.06;105849;1277;22703;-81
2022/03/04 06:34:29;;;;;;;76.00;68.50;;;;;;;-1.26;71.18;98055.38;105718;1277;22820;-81
2022/03/04 06:36:58;;;;;;;67.20;60.20;;;;;;;-1.23;71.44;98057.70;105795;1281;22667;-80
2022/03/04 06:39:26;;;;;;;68.10;61.40;;;;;;;-1.24;72.16;98053.94;105690;1277;22675;-80
2022/03/04 06:41:54;;;;;;;74.70;67.20;;;;;;;-1.26;71.95;98056.89;105900;1277;25621;-80
2022/03/04 06:44:22;;;;;;;77.10;69.30;;;;;;;-1.29;72.47;98052.77;105798;1277;24083;-81
2022/03/04 06:46:50;;;;;;;64.70;58.10;;;;;;;-1.34;73.18;98051.76;105890;1277;22760;-81
2022/03/04 06:49:18;;;;;;;67.20;60.50;;;;;;;-1.36;73.04;98052.70;105860;1277;22558;-80
2022/03/04 06:51:45;;;;;;;76.60;68.40;;;;;;;-1.35;73.59;98054.20;105945;1277;25803;-80
2022/03/04 06:54:13;;;;;;;102.60;77.90;;;;;;;-1.37;73.25;98051.54;105937;1277;22863;-80
2022/03/04 06:56:41;;;;;;;75.00;67.20;;;;;;;-1.36;73.02;98054.66;105987;1277;22615;-79
2022/03/04 06:59:09;;;;;;;74.90;64.90;;;;;;;-1.35;73.69;98057.02;105823;1277;22494;-81
2022/03/04 07:01:37;;;;;;;68.00;61.20;;;;;;;-1.36;73.37;98056.36;106034;1278;25304;-81
2022/03/04 07:04:05;;;;;;;68.90;62.30;;;;;;;-1.34;73.49;98054.89;105928;1277;22635;-80
2022/03/04 07:06:33;;;;;;;71.40;64.30;;;;;;;-1.30;73.63;98056.77;105753;1278;22620;-80
2022/03/04 07:09:01;;;;;;;69.90;62.30;;;;;;;-1.29;73.96;98055.89;105944;1277;22563;-80
2022/03/04 07:11:29;;;;;;;64.70;58.20;;;;;;;-1.30;74.16;98060.98;105766;1277;22727;-79
2022/03/04 07:13:57;;;;;;;68.80;62.00;;;;;;;-1.29;74.24;98064.14;105678;1280;22763;-81
2022/03/04 07:16:25;;;;;;;75.80;68.10;;;;;;;-1.24;73.89;98064.91;105787;1277;22882;-80
2022/03/04 07:18:53;;;;;;;124.60;85.00;;;;;;;-1.20;74.84;98062.97;105881;1277;25509;-80
2022/03/04 07:21:21;;;;;;;79.40;71.00;;;;;;;-1.24;74.81;98061.13;105919;1278;24462;-81
2022/03/04 07:23:49;;;;;;;70.90;63.50;;;;;;;-1.24;74.46;98064.38;105856;1277;25423;-80
2022/03/04 07:26:17;;;;;;;69.10;61.90;;;;;;;-1.19;74.34;98066.70;105874;1277;22580;-81
2022/03/04 07:28:45;;;;;;;72.40;64.80;;;;;;;-1.11;74.42;98067.84;106000;1277;25510;-81
2022/03/04 07:31:14;;;;;;;72.40;65.30;;;;;;;-1.07;74.53;98068.98;105975;1277;22556;-80
2022/03/04 07:33:42;;;;;;;73.30;66.00;;;;;;;-1.04;74.48;98068.86;106009;1277;22642;-81
2022/03/04 07:36:09;;;;;;;67.20;60.60;;;;;;;-1.01;74.51;98067.77;106009;1277;25428;-80
2022/03/04 07:38:37;;;;;;;69.40;62.20;;;;;;;-0.98;74.77;98072.08;105980;1277;22563;-81
2022/03/04 07:41:05;;;;;;;71.20;63.80;;;;;;;-0.94;74.66;98071.20;105961;1277;25467;-81
2022/03/04 07:43:34;;;;;;;70.00;63.30;;;;;;;-0.88;74.51;98071.63;105916;1277;25261;-81
2022/03/04 07:46:02;;;;;;;71.40;64.20;;;;;;;-0.83;74.32;98073.64;105947;1277;25293;-82
2022/03/04 07:48:30;;;;;;;68.10;61.50;;;;;;;-0.84;74.74;98075.20;105961;1277;26557;-80
2022/03/04 07:50:59;;;;;;;65.40;59.10;;;;;;;-0.83;74.76;98076.42;105749;1277;22551;-82
2022/03/04 07:53:28;;;;;;;63.20;56.60;;;;;;;-0.76;74.45;98072.50;105927;1280;22725;-81
2022/03/04 07:55:56;;;;;;;67.40;60.90;;;;;;;-0.68;74.22;98068.82;105950;1277;22541;-80
2022/03/04 07:58:24;;;;;;;64.80;58.50;;;;;;;-0.59;74.16;98073.61;105943;1277;22557;-82
2022/03/04 08:00:52;;;;;;;72.00;64.90;;;;;;;-0.56;74.48;98070.06;105874;1277;24308;-80
2022/03/04 08:03:40;;;;;;;73.70;66.70;;;;;;;-0.57;74.43;98073.04;105947;1277;22615;-80
2022/03/04 08:06:09;;;;;;;66.30;59.50;;;;;;;-0.54;74.49;98076.30;105904;1277;22621;-82
2022/03/04 08:08:39;;;;;;;65.80;59.70;;;;;;;-0.51;74.32;98077.08;105933;1277;24240;-81
2022/03/04 08:11:07;;;;;;;64.10;57.70;;;;;;;-0.44;74.22;98081.07;106101;1280;22567;-82
2022/03/04 08:13:36;;;;;;;66.30;59.70;;;;;;;-0.40;74.64;98084.00;106041;1279;23028;-82
2022/03/04 08:16:08;;;;;;;67.00;60.60;;;;;;;-0.39;74.59;98087.08;105625;1280;22556;-78
2022/03/04 08:18:40;;;;;;;70.40;63.70;;;;;;;-0.45;74.66;98090.52;105817;1280;24314;-79
2022/03/04 08:21:11;;;;;;;76.40;68.60;;;;;;;-0.49;74.55;98092.90;106869;1280;22789;-80
2022/03/04 08:23:53;;;;;;;73.30;65.40;;;;;;;-0.51;74.40;98098.67;106103;1280;22777;-79
2022/03/04 08:26:24;;;;;;;66.20;58.90;;;;;;;-0.49;74.63;98099.27;105871;1280;23121;-82
2022/03/04 08:28:52;;;;;;;70.70;63.40;;;;;;;-0.45;74.49;98098.67;106089;1280;22822;-82
2022/03/04 08:31:23;;;;;;;69.90;62.70;;;;;;;-0.43;74.45;98097.15;105788;1280;22607;-81
2022/03/04 08:33:52;;;;;;;73.90;66.00;;;;;;;-0.43;74.39;98095.49;106101;1280;22703;-80
2022/03/04 08:36:27;;;;;;;68.60;61.90;;;;;;;-0.42;74.84;98097.80;106010;1280;22789;-80
2022/03/04 08:38:55;;;;;;;66.90;60.40;;;;;;;-0.47;74.91;98099.84;106122;1280;22702;-82
2022/03/04 08:41:24;;;;;;;65.50;59.30;;;;;;;-0.44;74.76;98099.33;106301;1280;24402;-81
2022/03/04 08:43:52;;;;;;;66.20;60.00;;;;;;;-0.41;74.86;98102.80;106260;1280;25388;-81
2022/03/04 08:46:21;;;;;;;69.20;62.60;;;;;;;-0.39;74.80;98100.15;105805;1281;22773;-83
2022/03/04 08:48:49;;;;;;;70.60;63.60;;;;;;;-0.37;75.05;98103.75;106109;1280;22651;-82
2022/03/04 08:51:24;;;;;;;75.20;67.40;;;;;;;-0.37;74.80;98104.81;106162;1280;22781;-81
2022/03/04 08:53:55;;;;;;;68.00;61.30;;;;;;;-0.32;74.89;98105.70;105899;1280;24454;-81
2022/03/04 08:56:25;;;;;;;69.10;62.30;;;;;;;-0.26;75.00;98108.83;106097;1279;24171;-81
2022/03/04 08:58:53;;;;;;;65.80;59.30;;;;;;;-0.22;74.57;98108.20;106128;1279;23143;-81
2022/03/04 09:01:21;;;;;;;66.80;60.10;;;;;;;-0.16;74.70;98109.05;105748;1280;22809;-80
2022/03/04 09:03:51;;;;;;;71.80;64.00;;;;;;;-0.16;74.99;98110.78;106145;1280;24313;-82
2022/03/04 09:06:19;;;;;;;71.20;64.20;;;;;;;-0.21;75.11;98112.68;105696;1280;25357;-79
2022/03/04 09:08:47;;;;;;;71.10;63.80;;;;;;;-0.24;74.82;98111.36;106235;1280;25622;-79
2022/03/04 09:11:17;;;;;;;71.20;63.70;;;;;;;-0.21;74.99;98111.61;106124;1280;22659;-80
2022/03/04 09:13:45;;;;;;;64.20;58.00;;;;;;;-0.14;74.94;98110.42;105769;1280;24262;-79
2022/03/04 09:16:13;;;;;;;64.70;58.30;;;;;;;-0.06;74.90;98118.91;106151;1280;22625;-80
2022/03/04 09:18:43;;;;;;;71.20;63.30;;;;;;;-0.05;75.00;98122.75;105903;1279;23435;-80
2022/03/04 09:21:11;;;;;;;70.80;63.60;;;;;;;-0.02;74.94;98121.23;106055;1280;22786;-79
2022/03/04 09:23:39;;;;;;;70.20;63.20;;;;;;;-0.02;74.74;98122.83;106101;1280;24253;-80
2022/03/04 09:26:07;;;;;;;67.20;60.40;;;;;;;-0.01;74.99;98123.65;105999;1280;22740;-79
2022/03/04 09:28:37;;;;;;;67.50;60.90;;;;;;;-0.03;74.92;98122.49;106151;1280;23371;-81
2022/03/04 09:31:10;;;;;;;68.20;61.30;;;;;;;-0.03;75.16;98123.47;105576;1281;22677;-81
2022/03/04 09:33:38;;;;;;;72.40;65.20;;;;;;;-0.01;75.22;98130.53;105875;1280;22579;-80
2022/03/04 09:36:11;;;;;;;75.20;67.90;;;;;;;0.01;75.12;98129.41;106104;1280;22639;-79
2022/03/04 09:38:40;;;;;;;70.60;63.20;;;;;;;0.05;75.09;98134.81;106034;1280;25586;-79
2022/03/04 09:41:08;;;;;;;66.50;59.90;;;;;;;0.06;75.11;98135.05;106033;1280;22477;-80
2022/03/04 09:43:39;;;;;;;66.70;59.70;;;;;;;0.04;75.18;98135.10;105827;1280;22589;-79
2022/03/04 09:46:08;;;;;;;58.00;52.40;;;;;;;0.02;75.16;98145.33;106110;1280;22637;-80
2022/03/04 09:48:40;;;;;;;62.50;56.30;;;;;;;0.02;75.69;98147.66;106080;1280;22546;-79
2022/03/04 09:51:10;;;;;;;66.80;60.00;;;;;;;-0.04;75.43;98145.25;105842;1280;25423;-80
2022/03/04 09:53:39;;;;;;;70.20;63.30;;;;;;;-0.07;75.65;98143.66;106083;1280;22539;-78
2022/03/04 09:56:07;;;;;;;70.60;63.30;;;;;;;-0.12;75.57;98145.89;106156;1280;22577;-79
2022/03/04 09:58:38;;;;;;;66.80;60.00;;;;;;;-0.16;75.56;98142.63;106166;1280;24314;-81
2022/03/04 10:01:12;;;;;;;62.70;56.50;;;;;;;-0.13;75.64;98140.84;105851;1280;22654;-79
2022/03/04 10:03:46;;;;;;;60.40;54.50;;;;;;;-0.04;75.48;98146.55;106110;1280;23940;-78
2022/03/04 10:06:16;;;;;;;64.30;57.80;;;;;;;0.00;75.62;98144.92;105856;1280;25380;-79
2022/03/04 10:08:46;;;;;;;67.70;60.80;;;;;;;0.05;75.62;98142.80;105877;1280;22866;-79
2022/03/04 10:11:31;;;;;;;73.10;65.30;;;;;;;0.09;75.60;98145.15;106232;1279;22881;-79
2022/03/04 10:14:01;;;;;;;72.80;65.50;;;;;;;0.15;75.55;98147.28;106133;1280;22581;-80
2022/03/04 10:16:38;;;;;;;65.90;59.40;;;;;;;0.20;75.46;98149.73;106160;1280;23970;-79
2022/03/04 10:19:08;;;;;;;61.80;55.70;;;;;;;0.26;75.40;98148.39;105552;1279;22559;-81
2022/03/04 10:22:05;;;;;;;64.60;58.30;;;;;;;0.31;75.59;98147.51;106016;1280;25498;-79
2022/03/04 10:24:34;;;;;;;68.20;61.30;;;;;;;0.32;75.41;98143.35;106137;1280;22667;-79
2022/03/04 10:27:12;;;;;;;69.00;61.70;;;;;;;0.38;75.58;98146.10;105940;1280;25748;-79
2022/03/04 10:29:50;;;;;;;60.70;54.50;;;;;;;0.43;75.59;98145.77;106095;1280;25373;-79
2022/03/04 10:32:26;;;;;;;52.50;47.60;;;;;;;0.49;75.75;98140.48;106032;1280;24453;-78
2022/03/04 10:35:06;;;;;;;63.30;57.00;;;;;;;0.57;75.59;98141.20;106121;1280;22727;-80
2022/03/04 10:37:51;;;;;;;63.20;57.00;;;;;;;0.67;75.65;98141.16;106217;1280;25435;-79
2022/03/04 10:40:19;;;;;;;62.70;56.40;;;;;;;0.75;75.59;98138.99;106342;1280;25273;-80
2022/03/04 10:42:54;;;;;;;61.20;55.30;;;;;;;0.83;75.54;98136.20;105698;1280;23948;-79
2022/03/04 10:45:43;;;;;;;58.20;52.40;;;;;;;0.94;75.47;98131.58;106199;1280;25235;-79
2022/03/04 10:48:17;;;;;;;53.10;47.80;;;;;;;1.04;75.34;98134.99;106128;1280;25496;-81
2022/03/04 10:50:57;;;;;;;61.10;54.70;;;;;;;1.16;75.24;98130.00;106240;1279;24316;-79
2022/03/04 10:53:35;;;;;;;68.40;55.90;;;;;;;1.22;74.98;98134.91;106123;1280;22703;-79
2022/03/04 10:56:06;;;;;;;65.10;54.90;;;;;;;1.33;75.09;98133.24;106217;1280;23420;-80
2022/03/04 10:58:38;;;;;;;62.80;56.50;;;;;;;1.41;74.91;98130.10;105896;1280;22629;-79
2022/03/04 11:01:09;;;;;;;56.30;49.90;;;;;;;1.48;74.75;98132.23;106069;1280;24435;-78
2022/03/04 11:03:41;;;;;;;58.80;49.60;;;;;;;1.49;74.69;98132.77;105765;1280;22702;-79
2022/03/04 11:06:16;;;;;;;50.90;45.60;;;;;;;1.60;74.66;98134.12;105775;1280;22677;-80
2022/03/04 11:08:44;;;;;;;48.80;43.10;;;;;;;1.66;74.38;98134.98;105949;1279;22698;-79
2022/03/04 11:11:15;;;;;;;51.70;46.70;;;;;;;1.58;74.24;98132.32;105796;1280;22561;-80
2022/03/04 11:13:43;;;;;;;51.30;46.20;;;;;;;1.60;74.42;98128.40;106159;1279;22557;-80
2022/03/04 11:16:11;;;;;;;51.80;46.60;;;;;;;1.67;73.95;98127.95;106320;1280;23445;-82
2022/03/04 11:18:40;;;;;;;52.40;47.00;;;;;;;1.71;74.18;98125.64;105974;1280;22721;-78
2022/03/04 11:21:11;;;;;;;49.40;44.70;;;;;;;1.78;74.34;98120.45;105866;1280;22586;-78